Terminal Aerodrome Forecast
Issued by NWS Miami, FL

Home | Current Version | Previous Version | Text Only | Print | Product List | Glossary On
Versions: 1 2 3 4 5 6 7 8 9 10 11 12 13 14 15 16 17 18 19 20 21 22 23 24 25 26 27 28
000
FTUS42 KMFL 272053 AAA
TAFFLL
TAF AMD
KFLL 272053Z 2721/2818 12017G22KT P6SM SCT035
     FM280000 11011KT P6SM SCT050 SCT120
     FM281200 11010KT P6SM SCT050 SCT250
     FM281400 11016KT P6SM SCT050 BKN250=

USA.gov is the U.S. government's official web portal to all federal, state and local government web resources and services.